Time;durP1;ratioP1;P1;durP2;ratioP2;P2;SDS_P1;SDS_P2;PMS_P1;PMS_P2;Temp;Humidity;BMP_temperature;BMP_pressure;BME280_temperature;BME280_humidity;BME280_pressure;Samples;Min_cycle;Max_cycle;Signal;HPM_P1;HPM_P2
2021/08/21 00:00:49;;;;;;;;;;;17.20;99.90;;;;;;5029405;28;20293;-66
2021/08/21 00:03:14;;;;;;;;;;;17.20;99.90;;;;;;5029436;28;19920;-66
2021/08/21 00:05:40;;;;;;;;;;;17.10;1.00;;;;;;5029741;28;19921;-66
2021/08/21 00:08:05;;;;;;;;;;;17.10;1.00;;;;;;5030040;28;19999;-66
2021/08/21 00:10:32;;;;;;;;;;;17.10;1.00;;;;;;5029824;28;19909;-66
2021/08/21 00:12:57;;;;;;;;;;;17.10;99.90;;;;;;5029808;28;19913;-66
2021/08/21 00:15:23;;;;;;;;;;;17.10;1.00;;;;;;5027691;28;19909;-66
2021/08/21 00:17:49;;;;;;;;;;;17.00;1.00;;;;;;5030547;28;20461;-66
2021/08/21 00:20:15;;;;;;;;;;;17.00;1.00;;;;;;5030028;28;20405;-66
2021/08/21 00:22:41;;;;;;;;;;;17.00;1.00;;;;;;5028973;28;19975;-66
2021/08/21 00:25:07;;;;;;;;;;;17.00;1.00;;;;;;5029642;28;19967;-66
2021/08/21 00:27:32;;;;;;;;;;;16.90;1.00;;;;;;5028949;28;19913;-66
2021/08/21 00:29:58;;;;;;;;;;;16.90;1.00;;;;;;5028969;28;20299;-66
2021/08/21 00:32:23;;;;;;;;;;;16.90;99.90;;;;;;5028602;28;19913;-66
2021/08/21 00:34:49;;;;;;;;;;;16.90;99.90;;;;;;5029603;28;19917;-66
2021/08/21 00:37:14;;;;;;;;;;;16.90;19.10;;;;;;5026200;28;19916;-66
2021/08/21 00:39:40;;;;;;;;;;;16.90;9.40;;;;;;5019342;28;20349;-66
2021/08/21 00:42:06;;;;;;;;;;;16.90;99.90;;;;;;5028562;28;19971;-66
2021/08/21 00:44:32;;;;;;;;;;;16.80;99.90;;;;;;5029091;28;19919;-66
2021/08/21 00:47:14;;;;;;;;;;;16.80;99.90;;;;;;5029449;28;19921;-66
2021/08/21 00:49:41;;;;;;;;;;;16.80;1.00;;;;;;5029079;28;20003;-66
2021/08/21 00:52:08;;;;;;;;;;;16.70;1.00;;;;;;5029357;28;20401;-66
2021/08/21 00:54:33;;;;;;;;;;;16.70;1.00;;;;;;5032816;28;19909;-66
2021/08/21 00:57:05;;;;;;;;;;;16.70;1.00;;;;;;5032456;28;19909;-66
2021/08/21 00:59:37;;;;;;;;;;;16.70;1.00;;;;;;5031889;28;19909;-66
2021/08/21 01:02:05;;;;;;;;;;;16.60;1.00;;;;;;5029537;28;19909;-66
2021/08/21 01:04:31;;;;;;;;;;;16.60;1.00;;;;;;5032420;28;19983;-66
2021/08/21 01:06:59;;;;;;;;;;;16.60;86.90;;;;;;5032330;28;20008;-66
2021/08/21 01:09:24;;;;;;;;;;;16.50;99.90;;;;;;5033080;28;19909;-66
2021/08/21 01:11:50;;;;;;;;;;;16.50;99.90;;;;;;5031363;28;19925;-66
2021/08/21 01:14:15;;;;;;;;;;;16.50;99.90;;;;;;5026323;28;19975;-66
2021/08/21 01:16:41;;;;;;;;;;;16.50;99.90;;;;;;5013497;28;20003;-66
2021/08/21 01:19:07;;;;;;;;;;;16.50;99.90;;;;;;5016444;28;19917;-66
2021/08/21 01:21:32;;;;;;;;;;;16.40;1.00;;;;;;5020435;28;20169;-66
2021/08/21 01:23:58;;;;;;;;;;;16.40;1.00;;;;;;5016394;28;19924;-66
2021/08/21 01:26:24;;;;;;;;;;;;;;;;;;5019472;28;19917;-66
2021/08/21 01:28:49;;;;;;;;;;;16.40;1.00;;;;;;5025078;28;20039;-66
2021/08/21 01:31:15;;;;;;;;;;;16.40;1.00;;;;;;5036845;28;19913;-67
2021/08/21 01:33:41;;;;;;;;;;;16.30;1.00;;;;;;5036645;28;20497;-66
2021/08/21 01:36:07;;;;;;;;;;;16.30;1.00;;;;;;5037496;28;20016;-66
2021/08/21 01:38:32;;;;;;;;;;;16.30;1.00;;;;;;5037320;28;20289;-66
2021/08/21 01:40:58;;;;;;;;;;;16.30;1.00;;;;;;5031514;28;19916;-67
2021/08/21 01:43:24;;;;;;;;;;;16.30;1.00;;;;;;5030610;28;19913;-66
2021/08/21 01:45:49;;;;;;;;;;;16.30;1.00;;;;;;5030615;28;19913;-66
2021/08/21 01:48:16;;;;;;;;;;;16.20;1.00;;;;;;5030654;28;19971;-67
2021/08/21 01:50:41;;;;;;;;;;;16.20;1.00;;;;;;5031255;28;19963;-66
2021/08/21 01:53:10;;;;;;;;;;;16.20;29.80;;;;;;5030648;28;19917;-67
2021/08/21 01:55:36;;;;;;;;;;;16.20;40.20;;;;;;5031456;28;19916;-66
2021/08/21 01:58:01;;;;;;;;;;;16.20;96.50;;;;;;5030422;28;19919;-67
2021/08/21 02:00:30;;;;;;;;;;;16.10;99.90;;;;;;5030530;28;20655;-67
2021/08/21 02:02:55;;;;;;;;;;;16.10;99.90;;;;;;5029794;28;19948;-67
2021/08/21 02:05:22;;;;;;;;;;;16.10;99.90;;;;;;5030137;28;19967;-67
2021/08/21 02:07:47;;;;;;;;;;;16.10;99.90;;;;;;5030978;28;19971;-67
2021/08/21 02:10:13;;;;;;;;;;;16.10;99.90;;;;;;5030386;28;19910;-66
2021/08/21 02:12:39;;;;;;;;;;;16.00;99.90;;;;;;5029797;28;19983;-66
2021/08/21 02:15:06;;;;;;;;;;;16.00;99.90;;;;;;5021803;28;19910;-66
2021/08/21 02:17:31;;;;;;;;;;;16.00;99.90;;;;;;5013533;28;19914;-66
2021/08/21 02:19:57;;;;;;;;;;;16.00;99.90;;;;;;5010940;28;19919;-66
2021/08/21 02:22:22;;;;;;;;;;;16.00;99.90;;;;;;5009728;28;19913;-66
2021/08/21 02:24:51;;;;;;;;;;;16.00;99.90;;;;;;5010707;28;19910;-67
2021/08/21 02:27:21;;;;;;;;;;;15.90;99.90;;;;;;5010442;28;19918;-66
2021/08/21 02:29:47;;;;;;;;;;;15.90;99.90;;;;;;5027702;28;20429;-67
2021/08/21 02:32:12;;;;;;;;;;;15.90;99.90;;;;;;5029584;28;19952;-67
2021/08/21 02:34:38;;;;;;;;;;;15.90;99.90;;;;;;5029319;28;19996;-67
2021/08/21 02:37:03;;;;;;;;;;;15.90;99.90;;;;;;5030654;28;20282;-67
2021/08/21 02:39:29;;;;;;;;;;;15.90;99.90;;;;;;5030298;28;20337;-66
2021/08/21 02:41:54;;;;;;;;;;;15.80;99.90;;;;;;5029044;28;20413;-66
2021/08/21 02:44:20;;;;;;;;;;;15.80;1.00;;;;;;5028917;28;19920;-67
2021/08/21 02:46:45;;;;;;;;;;;15.80;1.00;;;;;;5030307;28;19917;-66
2021/08/21 02:49:11;;;;;;;;;;;15.80;1.00;;;;;;5030129;28;20010;-66
2021/08/21 02:51:36;;;;;;;;;;;15.70;1.00;;;;;;5029903;28;19917;-66
2021/08/21 02:54:02;;;;;;;;;;;15.70;1.00;;;;;;5028970;28;19913;-67
2021/08/21 02:56:27;;;;;;;;;;;15.70;1.00;;;;;;5028865;28;19956;-67
2021/08/21 02:58:53;;;;;;;;;;;15.70;1.00;;;;;;5029063;28;19916;-67
2021/08/21 03:01:18;;;;;;;;;;;15.70;1.00;;;;;;5025063;28;19921;-67
2021/08/21 03:03:43;;;;;;;;;;;15.70;1.00;;;;;;5009233;28;19919;-66
2021/08/21 03:06:09;;;;;;;;;;;15.70;1.00;;;;;;5009779;28;19929;-66
2021/08/21 03:08:34;;;;;;;;;;;15.60;1.00;;;;;;5009942;28;19960;-66
2021/08/21 03:11:00;;;;;;;;;;;15.70;1.00;;;;;;5009657;28;19913;-67
2021/08/21 03:13:26;;;;;;;;;;;15.70;1.00;;;;;;5010571;28;20315;-66
2021/08/21 03:15:51;;;;;;;;;;;15.70;1.00;;;;;;5027634;28;19967;-67
2021/08/21 03:18:16;;;;;;;;;;;15.60;1.00;;;;;;5029598;28;19923;-67
2021/08/21 03:20:42;;;;;;;;;;;15.60;1.00;;;;;;5029129;28;20372;-66
2021/08/21 03:23:07;;;;;;;;;;;15.60;1.00;;;;;;5028718;28;19959;-66
2021/08/21 03:25:33;;;;;;;;;;;15.50;1.00;;;;;;5029230;28;20364;-66
2021/08/21 03:27:58;;;;;;;;;;;15.50;1.00;;;;;;5029077;28;19909;-66
2021/08/21 03:30:24;;;;;;;;;;;15.50;1.00;;;;;;5028321;28;19938;-66
2021/08/21 03:32:49;;;;;;;;;;;15.50;1.00;;;;;;5028420;28;19920;-66
2021/08/21 03:35:15;;;;;;;;;;;15.40;1.00;;;;;;5029123;28;19978;-67
2021/08/21 03:37:41;;;;;;;;;;;15.40;1.00;;;;;;5029231;28;20392;-66
2021/08/21 03:40:06;;;;;;;;;;;15.40;1.00;;;;;;5021015;28;20098;-65
2021/08/21 03:42:32;;;;;;;;;;;15.30;1.00;;;;;;5028111;28;20063;-67
2021/08/21 03:44:57;;;;;;;;;;;15.40;1.00;;;;;;5028118;28;19913;-67
2021/08/21 03:47:23;;;;;;;;;;;15.30;1.00;;;;;;5029075;28;19924;-66
2021/08/21 03:49:48;;;;;;;;;;;15.30;1.00;;;;;;5029314;28;19914;-67
2021/08/21 03:52:14;;;;;;;;;;;15.30;1.00;;;;;;5028350;28;20079;-66
2021/08/21 03:54:39;;;;;;;;;;;15.20;1.00;;;;;;5029087;28;20051;-67
2021/08/21 03:57:04;;;;;;;;;;;15.20;1.00;;;;;;5028144;28;20032;-66
2021/08/21 03:59:30;;;;;;;;;;;15.20;1.00;;;;;;5027811;28;20285;-67
2021/08/21 04:01:55;;;;;;;;;;;15.20;1.00;;;;;;5028487;28;19910;-67
2021/08/21 04:04:21;;;;;;;;;;;15.20;1.00;;;;;;5028948;28;20362;-66
2021/08/21 04:06:47;;;;;;;;;;;15.20;1.00;;;;;;5028724;28;19928;-66
2021/08/21 04:09:12;;;;;;;;;;;15.20;1.00;;;;;;5028684;28;19915;-66
2021/08/21 04:11:38;;;;;;;;;;;15.10;1.00;;;;;;5028811;28;20408;-66
2021/08/21 04:14:03;;;;;;;;;;;15.10;1.00;;;;;;5025284;28;19913;-66
2021/08/21 04:16:29;;;;;;;;;;;15.10;1.00;;;;;;5029003;28;19920;-66
2021/08/21 04:18:54;;;;;;;;;;;15.10;1.00;;;;;;5028389;28;20381;-67
2021/08/21 04:21:20;;;;;;;;;;;15.10;1.00;;;;;;5029003;28;19909;-66
2021/08/21 04:23:45;;;;;;;;;;;15.10;1.00;;;;;;5027861;28;19913;-66
2021/08/21 04:26:11;;;;;;;;;;;15.00;1.00;;;;;;5028338;28;20378;-66
2021/08/21 04:28:36;;;;;;;;;;;15.00;1.00;;;;;;5031461;28;19928;-67
2021/08/21 04:31:02;;;;;;;;;;;14.90;1.00;;;;;;5031407;28;19979;-66
2021/08/21 04:33:27;;;;;;;;;;;15.00;1.00;;;;;;5032162;28;19909;-67
2021/08/21 04:35:53;;;;;;;;;;;15.00;1.00;;;;;;5032646;28;19920;-66
2021/08/21 04:38:19;;;;;;;;;;;15.00;1.00;;;;;;5032291;28;19913;-66
2021/08/21 04:40:46;;;;;;;;;;;15.10;1.00;;;;;;5032520;28;19910;-67
2021/08/21 04:43:12;;;;;;;;;;;15.10;1.00;;;;;;5030947;28;19909;-66
2021/08/21 04:45:38;;;;;;;;;;;15.10;1.00;;;;;;5030988;28;20444;-66
2021/08/21 04:48:04;;;;;;;;;;;15.20;1.00;;;;;;5032396;28;19920;-66
2021/08/21 04:50:29;;;;;;;;;;;15.30;1.00;;;;;;5032424;28;19920;-67
2021/08/21 04:52:55;;;;;;;;;;;15.40;1.00;;;;;;5031660;28;19920;-66
2021/08/21 04:55:20;;;;;;;;;;;15.40;1.00;;;;;;5031980;28;19975;-65
2021/08/21 04:57:46;;;;;;;;;;;15.50;1.00;;;;;;5030555;28;19920;-66
2021/08/21 05:00:11;;;;;;;;;;;15.60;1.00;;;;;;5031572;28;20323;-66
2021/08/21 05:02:37;;;;;;;;;;;15.60;1.00;;;;;;5031933;28;19913;-67
2021/08/21 05:05:02;;;;;;;;;;;15.80;1.00;;;;;;5032449;28;20047;-66
2021/08/21 05:07:28;;;;;;;;;;;15.90;99.90;;;;;;5032633;28;19924;-66
2021/08/21 05:09:53;;;;;;;;;;;16.00;99.90;;;;;;5032477;28;19917;-66
2021/08/21 05:12:19;;;;;;;;;;;16.10;99.90;;;;;;5034739;28;19913;-66
2021/08/21 05:14:44;;;;;;;;;;;16.30;42.30;;;;;;5029715;28;19909;-66
2021/08/21 05:17:10;;;;;;;;;;;16.40;1.00;;;;;;5020699;28;19919;-66
2021/08/21 05:19:49;;;;;;;;;;;16.60;1.00;;;;;;5014306;28;19937;-65
2021/08/21 05:24:45;;;;;;;;;;;16.90;1.00;;;;;;5021476;28;19910;-66
2021/08/21 05:27:11;;;;;;;;;;;17.10;99.90;;;;;;5013592;28;19928;-64
2021/08/21 05:29:36;;;;;;;;;;;17.50;1.00;;;;;;5028408;28;19917;-66
2021/08/21 05:32:02;;;;;;;;;;;18.20;47.50;;;;;;5032034;28;19914;-64
2021/08/21 05:34:27;;;;;;;;;;;19.20;1.00;;;;;;5032632;28;20269;-67
2021/08/21 05:36:53;;;;;;;;;;;;;;;;;;5031676;28;19916;-66
2021/08/21 05:39:19;;;;;;;;;;;21.20;1.00;;;;;;5031095;28;19919;-65
2021/08/21 05:41:44;;;;;;;;;;;22.00;99.90;;;;;;5030800;28;20125;-66
2021/08/21 05:44:10;;;;;;;;;;;22.90;99.90;;;;;;5030770;28;19945;-66
2021/08/21 05:46:35;;;;;;;;;;;23.60;99.90;;;;;;5030189;28;19913;-66
2021/08/21 05:49:01;;;;;;;;;;;24.10;99.90;;;;;;5031533;28;19909;-68
2021/08/21 05:51:29;;;;;;;;;;;24.60;99.90;;;;;;5031504;28;19917;-66
2021/08/21 05:53:55;;;;;;;;;;;25.00;99.90;;;;;;5030358;28;20016;-66
2021/08/21 05:56:20;;;;;;;;;;;25.50;99.90;;;;;;5030959;28;20003;-66
2021/08/21 05:58:46;;;;;;;;;;;26.10;99.90;;;;;;5030597;28;19913;-66
2021/08/21 06:01:11;;;;;;;;;;;26.20;99.90;;;;;;5030824;28;19913;-66
2021/08/21 06:03:36;;;;;;;;;;;26.50;99.90;;;;;;5030526;28;19931;-66
2021/08/21 06:06:02;;;;;;;;;;;26.90;99.90;;;;;;5030429;28;19917;-66
2021/08/21 06:08:27;;;;;;;;;;;27.20;99.90;;;;;;5031375;28;19963;-66
2021/08/21 06:10:55;;;;;;;;;;;27.90;99.90;;;;;;5030929;28;19913;-66
2021/08/21 06:13:20;;;;;;;;;;;27.80;99.90;;;;;;5029317;28;19918;-66
2021/08/21 06:15:46;;;;;;;;;;;27.30;99.90;;;;;;5028303;28;19917;-66
2021/08/21 06:18:11;;;;;;;;;;;27.00;99.90;;;;;;5030538;28;19913;-66
2021/08/21 06:20:37;;;;;;;;;;;27.20;99.90;;;;;;5022471;28;20223;-66
2021/08/21 06:23:02;;;;;;;;;;;27.20;99.90;;;;;;5029921;28;20250;-67
2021/08/21 06:25:28;;;;;;;;;;;27.40;99.90;;;;;;5030788;28;20587;-66
2021/08/21 06:27:53;;;;;;;;;;;27.50;99.90;;;;;;5029702;28;19913;-67
2021/08/21 06:30:19;;;;;;;;;;;26.90;99.90;;;;;;5030087;28;19936;-66
2021/08/21 06:32:45;;;;;;;;;;;27.40;99.90;;;;;;5029821;28;20358;-66
2021/08/21 06:35:11;;;;;;;;;;;27.70;99.90;;;;;;5030751;28;20212;-66
2021/08/21 06:37:36;;;;;;;;;;;27.60;99.90;;;;;;5030281;28;19928;-67
2021/08/21 06:40:02;;;;;;;;;;;27.60;99.90;;;;;;5021953;28;19913;-66
2021/08/21 06:42:27;;;;;;;;;;;27.00;99.90;;;;;;5024752;28;20338;-67
2021/08/21 06:44:53;;;;;;;;;;;26.50;99.90;;;;;;5021427;28;19913;-66
2021/08/21 06:47:19;;;;;;;;;;;25.70;99.90;;;;;;5013190;28;19932;-66
2021/08/21 06:49:44;;;;;;;;;;;25.30;99.90;;;;;;5016981;28;19925;-66
2021/08/21 06:52:10;;;;;;;;;;;25.00;99.90;;;;;;5017430;28;19924;-66
2021/08/21 06:54:35;;;;;;;;;;;24.90;99.90;;;;;;5020603;28;19913;-66
2021/08/21 06:57:01;;;;;;;;;;;24.80;99.90;;;;;;5018840;28;20013;-66
2021/08/21 06:59:26;;;;;;;;;;;24.90;99.90;;;;;;5021602;28;20393;-66
2021/08/21 07:01:52;;;;;;;;;;;24.60;99.90;;;;;;5020557;28;19977;-66
2021/08/21 07:04:17;;;;;;;;;;;24.90;99.90;;;;;;5018517;28;19929;-66
2021/08/21 07:06:43;;;;;;;;;;;25.10;99.90;;;;;;5019224;28;20393;-66
2021/08/21 07:09:09;;;;;;;;;;;25.60;99.90;;;;;;5019952;28;19920;-66
2021/08/21 07:11:34;;;;;;;;;;;26.00;99.90;;;;;;5017953;28;19929;-66
2021/08/21 07:14:00;;;;;;;;;;;26.70;99.90;;;;;;5019259;28;19978;-66
2021/08/21 07:16:25;;;;;;;;;;;27.10;99.90;;;;;;5019528;28;20000;-66
2021/08/21 07:18:51;;;;;;;;;;;27.40;99.90;;;;;;5019853;28;19964;-66
2021/08/21 07:21:16;;;;;;;;;;;28.00;99.90;;;;;;5018410;28;19948;-66
2021/08/21 07:23:42;;;;;;;;;;;28.00;99.90;;;;;;5020009;28;20350;-66
2021/08/21 07:26:08;;;;;;;;;;;28.70;99.90;;;;;;5018468;28;19920;-67
2021/08/21 07:28:34;;;;;;;;;;;29.60;99.90;;;;;;5019690;28;19916;-67
2021/08/21 07:31:00;;;;;;;;;;;30.10;99.90;;;;;;5022089;28;19909;-67
2021/08/21 07:33:26;;;;;;;;;;;30.90;99.90;;;;;;5017689;28;19936;-67
2021/08/21 07:35:52;;;;;;;;;;;31.00;99.90;;;;;;5019399;28;20370;-67
2021/08/21 07:38:17;;;;;;;;;;;31.10;99.90;;;;;;5021551;28;19986;-67
2021/08/21 07:40:43;;;;;;;;;;;31.30;99.90;;;;;;5029245;28;19925;-67
2021/08/21 07:43:08;;;;;;;;;;;31.50;99.90;;;;;;5028484;28;19910;-67
2021/08/21 07:45:34;;;;;;;;;;;32.10;99.90;;;;;;5029107;28;19952;-67
2021/08/21 07:47:59;;;;;;;;;;;33.00;99.90;;;;;;5029741;28;19924;-67
2021/08/21 07:50:25;;;;;;;;;;;32.80;99.90;;;;;;5029463;28;19920;-67
2021/08/21 07:52:50;;;;;;;;;;;33.00;99.90;;;;;;5028767;28;19920;-67
2021/08/21 07:55:16;;;;;;;;;;;33.20;99.90;;;;;;5029084;28;19909;-67
2021/08/21 07:57:41;;;;;;;;;;;32.80;99.90;;;;;;5029362;28;19920;-67
2021/08/21 08:00:08;;;;;;;;;;;32.50;99.90;;;;;;5028353;28;19943;-67
2021/08/21 08:02:33;;;;;;;;;;;33.00;99.90;;;;;;5028850;28;20316;-67
2021/08/21 08:04:59;;;;;;;;;;;33.90;99.90;;;;;;5029634;28;19913;-66
2021/08/21 08:07:24;;;;;;;;;;;33.90;99.90;;;;;;5029764;28;19913;-66
2021/08/21 08:09:50;;;;;;;;;;;33.40;99.90;;;;;;5030039;28;19940;-67
2021/08/21 08:12:15;;;;;;;;;;;34.10;99.90;;;;;;5028369;28;19935;-67
2021/08/21 08:14:41;;;;;;;;;;;34.30;99.90;;;;;;5026305;28;19987;-67
2021/08/21 08:17:07;;;;;;;;;;;34.80;99.90;;;;;;5023791;28;19909;-67
2021/08/21 08:19:33;;;;;;;;;;;35.20;99.90;;;;;;5029336;28;20359;-66
2021/08/21 08:21:59;;;;;;;;;;;37.10;99.90;;;;;;5028941;28;20287;-67
2021/08/21 08:24:24;;;;;;;;;;;39.40;99.90;;;;;;5029022;28;20017;-67
2021/08/21 08:26:50;;;;;;;;;;;41.70;99.90;;;;;;5029262;28;19949;-67
2021/08/21 08:29:16;;;;;;;;;;;42.90;99.90;;;;;;5028596;28;19918;-67
2021/08/21 08:31:41;;;;;;;;;;;43.30;99.70;;;;;;5029423;28;19924;-67
2021/08/21 08:34:07;;;;;;;;;;;44.10;95.10;;;;;;5028720;28;19966;-67
2021/08/21 08:36:32;;;;;;;;;;;45.10;90.90;;;;;;5028907;28;20432;-67
2021/08/21 08:38:58;;;;;;;;;;;45.40;80.10;;;;;;5028656;28;20271;-67
2021/08/21 08:41:24;;;;;;;;;;;46.10;69.70;;;;;;5028836;28;20359;-67
2021/08/21 08:43:49;;;;;;;;;;;46.00;58.00;;;;;;5027360;28;19978;-67
2021/08/21 08:46:19;;;;;;;;;;;46.00;51.40;;;;;;5027507;28;19917;-67
2021/08/21 08:48:44;;;;;;;;;;;46.90;46.20;;;;;;5028387;28;20247;-67
2021/08/21 08:51:10;;;;;;;;;;;46.60;38.70;;;;;;5028908;28;19916;-67
2021/08/21 08:53:36;;;;;;;;;;;47.10;34.00;;;;;;5028406;28;19913;-67
2021/08/21 08:56:02;;;;;;;;;;;47.60;29.70;;;;;;5028527;28;19909;-67
2021/08/21 08:58:27;;;;;;;;;;;48.20;26.60;;;;;;5029016;28;19909;-67
2021/08/21 09:00:53;;;;;;;;;;;48.70;23.40;;;;;;5028245;28;20521;-67
2021/08/21 09:03:20;;;;;;;;;;;46.30;16.60;;;;;;5028088;28;19964;-67
2021/08/21 09:05:46;;;;;;;;;;;46.70;14.50;;;;;;5028431;28;19939;-67
2021/08/21 09:08:21;;;;;;;;;;;47.50;13.10;;;;;;5028917;28;20004;-65
2021/08/21 09:10:47;;;;;;;;;;;48.10;11.60;;;;;;5028957;28;19910;-67
2021/08/21 09:13:15;;;;;;;;;;;48.90;9.60;;;;;;5027820;28;19936;-67
2021/08/21 09:15:40;;;;;;;;;;;48.60;7.10;;;;;;5021578;28;19913;-66
2021/08/21 09:18:09;;;;;;;;;;;47.90;4.00;;;;;;5032167;28;19920;-66
2021/08/21 09:20:52;;;;;;;;;;;48.20;2.40;;;;;;5032476;28;19983;-67
2021/08/21 09:23:22;;;;;;;;;;;48.20;1.00;;;;;;5031648;28;20273;-67
2021/08/21 09:25:49;;;;;;;;;;;48.70;1.00;;;;;;5032325;28;19909;-67
2021/08/21 09:28:19;;;;;;;;;;;48.40;1.00;;;;;;5031545;28;19909;-67
2021/08/21 09:30:45;;;;;;;;;;;46.90;1.00;;;;;;5031355;28;19909;-67
2021/08/21 09:33:12;;;;;;;;;;;46.90;1.00;;;;;;5031263;28;19948;-66
2021/08/21 09:35:37;;;;;;;;;;;46.40;1.00;;;;;;5032113;28;19913;-67
2021/08/21 09:38:03;;;;;;;;;;;46.50;1.00;;;;;;5031921;28;19910;-66
2021/08/21 09:40:36;;;;;;;;;;;45.60;1.00;;;;;;5032674;28;19984;-66
2021/08/21 09:43:03;;;;;;;;;;;44.90;1.00;;;;;;5030618;28;19920;-66
2021/08/21 09:45:29;;;;;;;;;;;45.60;1.00;;;;;;5031425;28;19927;-66
2021/08/21 09:47:59;;;;;;;;;;;45.30;1.00;;;;;;5031798;28;19922;-67
2021/08/21 09:50:24;;;;;;;;;;;45.60;1.00;;;;;;5031851;28;19909;-67
2021/08/21 09:52:51;;;;;;;;;;;45.70;1.00;;;;;;5030372;28;20008;-67
2021/08/21 09:55:20;;;;;;;;;;;45.70;1.00;;;;;;5031627;28;19995;-67
2021/08/21 09:58:03;;;;;;;;;;;45.00;1.00;;;;;;5031109;28;19909;-67
2021/08/21 10:00:30;;;;;;;;;;;44.80;1.00;;;;;;5031003;28;19999;-66
2021/08/21 10:02:58;;;;;;;;;;;45.70;1.30;;;;;;5030546;28;19963;-66
2021/08/21 10:05:25;;;;;;;;;;;46.90;1.00;;;;;;5031391;28;19917;-66
2021/08/21 10:07:56;;;;;;;;;;;47.20;1.00;;;;;;5031608;28;19913;-66
2021/08/21 10:10:23;;;;;;;;;;;47.50;1.00;;;;;;5031500;28;20282;-66
2021/08/21 10:12:54;;;;;;;;;;;46.30;1.00;;;;;;5030244;28;19909;-66
2021/08/21 10:15:21;;;;;;;;;;;44.50;1.00;;;;;;5013147;28;19917;-66
2021/08/21 10:17:47;;;;;;;;;;;43.20;1.00;;;;;;5021281;28;20421;-66
2021/08/21 10:20:13;;;;;;;;;;;41.00;1.00;;;;;;5030836;28;20000;-66
2021/08/21 10:22:39;;;;;;;;;;;40.00;1.00;;;;;;5030067;28;20377;-66
2021/08/21 10:25:06;;;;;;;;;;;39.90;1.00;;;;;;5030087;28;20414;-66
2021/08/21 10:27:43;;;;;;;;;;;39.60;1.00;;;;;;5030560;28;20385;-66
2021/08/21 10:30:17;;;;;;;;;;;40.50;1.00;;;;;;5030412;28;19920;-67
2021/08/21 10:32:43;;;;;;;;;;;41.00;7.40;;;;;;5030333;28;19948;-66
2021/08/21 10:35:10;;;;;;;;;;;42.00;1.00;;;;;;5030667;28;19916;-66
2021/08/21 10:37:39;;;;;;;;;;;41.70;1.00;;;;;;5030939;28;19921;-66
2021/08/21 10:40:25;;;;;;;;;;;40.60;1.00;;;;;;5031010;28;19916;-66
2021/08/21 10:42:54;;;;;;;;;;;40.60;1.00;;;;;;5022072;28;19915;-66
2021/08/21 10:45:38;;;;;;;;;;;41.40;1.00;;;;;;5029839;28;19941;-67
2021/08/21 10:48:04;;;;;;;;;;;41.80;1.10;;;;;;5030691;28;19969;-66
2021/08/21 10:50:31;;;;;;;;;;;41.50;1.60;;;;;;5031100;28;20390;-66
2021/08/21 10:52:56;;;;;;;;;;;42.10;2.40;;;;;;5021598;28;20479;-67
2021/08/21 10:55:24;;;;;;;;;;;42.80;1.90;;;;;;5030420;28;19909;-67
2021/08/21 10:57:59;;;;;;;;;;;43.30;1.80;;;;;;5030521;28;20208;-66
2021/08/21 11:00:39;;;;;;;;;;;43.10;1.00;;;;;;5029437;28;19955;-67
2021/08/21 11:03:08;;;;;;;;;;;42.70;1.00;;;;;;5029911;28;19936;-66
2021/08/21 11:05:51;;;;;;;;;;;42.10;1.00;;;;;;5029838;28;20382;-67
2021/08/21 11:08:17;;;;;;;;;;;41.90;1.00;;;;;;5031096;28;19917;-66
2021/08/21 11:10:42;;;;;;;;;;;40.00;1.00;;;;;;5030439;28;19916;-66
2021/08/21 11:13:10;;;;;;;;;;;38.10;1.00;;;;;;5029702;28;20000;-66
2021/08/21 11:15:36;;;;;;;;;;;37.00;1.00;;;;;;5029237;28;19913;-66
2021/08/21 11:18:22;;;;;;;;;;;35.70;1.90;;;;;;5030782;28;20016;-66
2021/08/21 11:20:47;;;;;;;;;;;35.80;4.60;;;;;;5030077;28;20274;-66
2021/08/21 11:23:13;;;;;;;;;;;36.10;6.60;;;;;;5029112;28;19921;-66
2021/08/21 11:25:39;;;;;;;;;;;36.30;7.80;;;;;;5029728;28;20040;-66
2021/08/21 11:28:06;;;;;;;;;;;36.50;9.90;;;;;;5030374;28;19975;-66
2021/08/21 11:30:35;;;;;;;;;;;36.70;10.90;;;;;;5029810;28;20327;-66
2021/08/21 11:33:07;;;;;;;;;;;36.10;11.90;;;;;;5031045;28;19909;-66
2021/08/21 11:35:33;;;;;;;;;;;35.90;13.20;;;;;;5029903;28;20008;-66
2021/08/21 11:38:05;;;;;;;;;;;36.30;15.30;;;;;;5029642;28;20345;-66
2021/08/21 11:40:42;;;;;;;;;;;37.10;16.50;;;;;;5030621;28;19987;-66
2021/08/21 11:43:09;;;;;;;;;;;36.70;16.40;;;;;;5030584;28;19909;-65
2021/08/21 11:45:35;;;;;;;;;;;35.10;16.90;;;;;;5030470;28;19960;-66
2021/08/21 11:48:00;;;;;;;;;;;35.00;18.90;;;;;;5030867;28;19960;-66
2021/08/21 11:50:28;;;;;;;;;;;35.30;20.80;;;;;;5028837;28;20059;-65
2021/08/21 11:52:54;;;;;;;;;;;35.50;21.90;;;;;;5010930;28;19927;-65
2021/08/21 11:55:20;;;;;;;;;;;36.20;22.40;;;;;;5010597;28;19948;-66
2021/08/21 11:57:47;;;;;;;;;;;36.70;22.60;;;;;;5009542;28;19940;-66
2021/08/21 12:00:18;;;;;;;;;;;36.90;22.90;;;;;;5009768;28;19915;-66
2021/08/21 12:02:48;;;;;;;;;;;37.10;23.70;;;;;;5008977;28;19909;-66
2021/08/21 12:05:13;;;;;;;;;;;37.40;23.80;;;;;;5010608;28;19909;-66
2021/08/21 12:07:39;;;;;;;;;;;37.70;24.40;;;;;;5010243;28;20315;-66
2021/08/21 12:10:05;;;;;;;;;;;37.90;23.50;;;;;;5010095;28;19978;-66
2021/08/21 12:12:32;;;;;;;;;;;38.00;23.60;;;;;;5008941;28;19932;-66
2021/08/21 12:14:58;;;;;;;;;;;37.70;23.30;;;;;;5021649;28;20290;-66
2021/08/21 12:17:24;;;;;;;;;;;37.10;22.40;;;;;;5025767;28;19992;-66
2021/08/21 12:19:49;;;;;;;;;;;36.80;22.60;;;;;;5029678;28;20067;-66
2021/08/21 12:22:15;;;;;;;;;;;36.40;22.80;;;;;;5029930;28;20208;-66
2021/08/21 12:24:50;;;;;;;;;;;35.70;22.10;;;;;;5030551;28;20463;-66
2021/08/21 12:27:26;;;;;;;;;;;35.10;22.00;;;;;;5029975;28;19917;-66
2021/08/21 12:30:04;;;;;;;;;;;34.90;23.00;;;;;;5028852;28;20338;-65
2021/08/21 12:32:30;;;;;;;;;;;34.90;34.10;;;;;;5028938;28;19909;-66
2021/08/21 12:35:16;;;;;;;;;;;35.10;24.60;;;;;;5029263;28;19921;-66
2021/08/21 12:37:41;;;;;;;;;;;35.40;25.30;;;;;;5028832;28;19916;-66
2021/08/21 12:40:07;;;;;;;;;;;35.50;25.50;;;;;;5028805;28;19910;-66
2021/08/21 12:42:32;;;;;;;;;;;35.70;26.00;;;;;;5026587;28;19913;-66
2021/08/21 12:45:00;;;;;;;;;;;35.50;25.40;;;;;;5029689;28;19955;-66
2021/08/21 12:47:34;;;;;;;;;;;34.90;26.40;;;;;;5029636;28;19921;-66
2021/08/21 12:50:08;;;;;;;;;;;34.80;27.10;;;;;;5032519;28;19909;-66
2021/08/21 12:52:33;;;;;;;;;;;34.50;26.90;;;;;;5013321;28;19909;-66
2021/08/21 12:55:05;;;;;;;;;;;34.20;27.20;;;;;;5012913;28;19935;-65
2021/08/21 12:57:32;;;;;;;;;;;33.80;28.00;;;;;;5013276;28;19985;-66
2021/08/21 13:00:02;;;;;;;;;;;33.30;28.80;;;;;;5013032;28;20366;-66
2021/08/21 13:02:38;;;;;;;;;;;33.00;30.00;;;;;;5012660;28;19965;-66
2021/08/21 13:05:04;;;;;;;;;;;32.60;31.80;;;;;;5013201;28;20021;-66
2021/08/21 13:07:39;;;;;;;;;;;32.40;33.80;;;;;;5012774;28;19969;-66
2021/08/21 13:10:05;;;;;;;;;;;32.30;35.50;;;;;;5013665;28;19945;-66
2021/08/21 13:12:30;;;;;;;;;;;32.20;37.70;;;;;;5012298;28;19956;-66
2021/08/21 13:14:56;;;;;;;;;;;32.30;39.50;;;;;;5013618;28;19995;-66
2021/08/21 13:17:21;;;;;;;;;;;32.30;40.50;;;;;;5020367;28;19996;-67
2021/08/21 13:19:47;;;;;;;;;;;32.20;41.60;;;;;;5032944;28;20269;-66
2021/08/21 13:22:12;;;;;;;;;;;32.00;41.80;;;;;;5032382;28;19935;-66
2021/08/21 13:24:38;;;;;;;;;;;32.10;43.70;;;;;;5033391;28;20361;-66
2021/08/21 13:27:03;;;;;;;;;;;32.20;44.20;;;;;;5033362;28;19932;-67
2021/08/21 13:29:29;;;;;;;;;;;32.20;45.00;;;;;;5032114;28;19958;-67
2021/08/21 13:31:54;;;;;;;;;;;32.20;45.70;;;;;;5032339;28;20255;-67
2021/08/21 13:34:20;;;;;;;;;;;32.20;46.20;;;;;;5032052;28;19909;-67
2021/08/21 13:36:47;;;;;;;;;;;32.10;46.60;;;;;;5032632;28;19975;-67
2021/08/21 13:39:12;;;;;;;;;;;32.10;47.80;;;;;;5032590;28;19917;-67
2021/08/21 13:41:38;;;;;;;;;;;32.20;49.50;;;;;;5032280;28;20277;-67
2021/08/21 13:44:03;;;;;;;;;;;32.40;49.00;;;;;;5030084;28;19916;-67
2021/08/21 13:46:29;;;;;;;;;;;32.40;48.90;;;;;;5032706;28;19920;-67
2021/08/21 13:48:54;;;;;;;;;;;32.40;49.00;;;;;;5031991;28;19910;-67
2021/08/21 13:51:20;;;;;;;;;;;32.30;49.80;;;;;;5025039;28;20282;-66
2021/08/21 13:53:46;;;;;;;;;;;32.10;48.10;;;;;;5028448;28;19963;-67
2021/08/21 13:56:12;;;;;;;;;;;32.00;48.50;;;;;;5020315;28;19918;-67
2021/08/21 13:58:37;;;;;;;;;;;31.90;49.60;;;;;;5020154;28;19993;-67
2021/08/21 14:01:03;;;;;;;;;;;31.80;49.80;;;;;;5017957;28;19933;-67
2021/08/21 14:03:28;;;;;;;;;;;31.60;50.00;;;;;;5021947;28;19909;-67
2021/08/21 14:05:54;;;;;;;;;;;31.40;51.10;;;;;;5023479;28;19948;-67
2021/08/21 14:08:19;;;;;;;;;;;31.30;51.90;;;;;;5023336;28;19914;-66
2021/08/21 14:10:44;;;;;;;;;;;31.10;52.20;;;;;;5018397;28;19909;-67
2021/08/21 14:13:10;;;;;;;;;;;30.80;52.70;;;;;;5014400;28;19914;-67
2021/08/21 14:15:36;;;;;;;;;;;30.80;54.10;;;;;;5014124;28;19925;-67
2021/08/21 14:18:02;;;;;;;;;;;30.80;55.30;;;;;;5023806;28;19939;-67
2021/08/21 14:20:28;;;;;;;;;;;30.90;56.70;;;;;;5034021;28;19920;-67
2021/08/21 14:22:53;;;;;;;;;;;31.00;57.60;;;;;;5031240;28;19909;-67